Time;durP1;ratioP1;P1;durP2;ratioP2;P2;SDS_P1;SDS_P2;PMS_P1;PMS_P2;Temp;Humidity;BMP_temperature;BMP_pressure;BME280_temperature;BME280_humidity;BME280_pressure;Samples;Min_cycle;Max_cycle;Signal;HPM_P1;HPM_P2
2022/10/08 00:06:26;;;;;;;16.65;11.52;;;;;;;;;;5149579;27;20068;-59
2022/10/08 00:09:08;;;;;;;10.25;9.13;;;;;;;;;;5127219;27;20027;-58
2022/10/08 00:12:22;;;;;;;11.40;9.80;;;;;;;;;;5149517;27;20057;-58
2022/10/08 00:15:07;;;;;;;15.35;9.93;;;;;;;;;;5103711;27;20039;-57
2022/10/08 00:24:12;;;;;;;12.27;9.70;;;;;;;;;;5045490;28;20053;-58
2022/10/08 00:26:59;;;;;;;11.13;9.13;;;;;;;;;;5071323;27;20091;-57
2022/10/08 00:29:55;;;;;;;10.82;8.43;;;;;;;;;;5113201;27;20041;-58
2022/10/08 00:32:40;;;;;;;10.48;7.97;;;;;;;;;;5149128;27;20020;-57
2022/10/08 00:35:14;;;;;;;16.13;9.90;;;;;;;;;;5148692;27;20031;-58
2022/10/08 00:40:55;;;;;;;;;;;;;;;;;;;;;
2022/10/08 00:44:08;;;;;;;13.77;8.80;;;;;;;;;;5148424;27;20201;-58
2022/10/08 00:46:54;;;;;;;9.40;8.45;;;;;;;;;;5028543;28;20021;-57
2022/10/08 00:52:25;;;;;;;9.80;8.80;;;;;;;;;;5068655;27;20095;-57
2022/10/08 00:55:10;;;;;;;11.60;8.32;;;;;;;;;;5148219;27;20023;-58
2022/10/08 00:57:52;;;;;;;12.60;7.68;;;;;;;;;;5130044;27;20069;-58
2022/10/08 01:00:47;;;;;;;10.40;8.63;;;;;;;;;;5149078;27;20103;-58
2022/10/08 01:03:44;;;;;;;10.07;8.05;;;;;;;;;;5148728;27;20027;-58
2022/10/08 01:06:31;;;;;;;9.68;7.97;;;;;;;;;;5148734;27;20027;-56
2022/10/08 01:09:20;;;;;;;8.50;7.63;;;;;;;;;;5148521;27;20054;-58
2022/10/08 01:11:55;;;;;;;9.90;8.63;;;;;;;;;;5148468;27;20027;-56
2022/10/08 01:14:43;;;;;;;12.27;7.47;;;;;;;;;;5129965;27;20051;-57
2022/10/08 01:17:29;;;;;;;11.98;8.48;;;;;;;;;;5147651;27;20068;-58
2022/10/08 01:20:20;;;;;;;9.13;8.10;;;;;;;;;;5147810;27;20042;-57
2022/10/08 01:23:05;;;;;;;10.40;8.00;;;;;;;;;;5147656;27;20083;-58
2022/10/08 01:26:05;;;;;;;8.00;7.05;;;;;;;;;;5129407;27;20092;-57
2022/10/08 01:29:16;;;;;;;9.60;7.25;;;;;;;;;;5127061;27;20035;-58
2022/10/08 01:32:24;;;;;;;9.85;8.32;;;;;;;;;;5148670;27;20422;-57
2022/10/08 01:35:16;;;;;;;9.25;8.23;;;;;;;;;;5084076;28;20074;-58
2022/10/08 01:38:17;;;;;;;11.02;7.70;;;;;;;;;;5076241;28;20033;-57
2022/10/08 01:41:01;;;;;;;;;;;;;;;;;;;;;
2022/10/08 01:43:46;;;;;;;8.77;7.95;;;;;;;;;;5130991;27;20098;-58
2022/10/08 01:46:57;;;;;;;;;;;;;;;;;;;;;
2022/10/08 01:59:10;;;;;;;;;;;;;;;;;;;;;
2022/10/08 02:01:52;;;;;;;13.40;9.02;;;;;;;;;;5147342;27;20468;-58
2022/10/08 02:04:36;;;;;;;10.30;9.05;;;;;;;;;;5147690;27;20026;-57
2022/10/08 02:07:39;;;;;;;9.93;8.20;;;;;;;;;;5104458;28;20107;-58
2022/10/08 02:10:32;;;;;;;12.85;8.13;;;;;;;;;;5104459;28;20040;-58
2022/10/08 02:16:10;;;;;;;11.18;8.07;;;;;;;;;;5104177;28;20039;-58
2022/10/08 02:18:57;;;;;;;15.35;8.90;;;;;;;;;;5104959;28;20043;-58
2022/10/08 02:21:55;;;;;;;8.30;7.47;;;;;;;;;;5102647;28;20034;-58
2022/10/08 02:24:54;;;;;;;10.00;9.00;;;;;;;;;;5073819;28;20103;-57
2022/10/08 02:30:26;;;;;;;11.75;9.10;;;;;;;;;;5025519;28;20080;-58
2022/10/08 02:39:14;;;;;;;;;;;;;;;;;;;;;
2022/10/08 02:45:02;;;;;;;11.30;7.55;;;;;;;;;;5029887;28;20145;-57
2022/10/08 02:47:31;;;;;;;9.18;8.23;;;;;;;;;;5043724;28;20055;-58
2022/10/08 02:52:44;;;;;;;15.32;8.52;;;;;;;;;;5144142;27;20070;-58
2022/10/08 02:55:29;;;;;;;9.98;7.88;;;;;;;;;;5147369;27;20031;-58
2022/10/08 02:58:37;;;;;;;9.23;7.72;;;;;;;;;;5147765;27;20048;-57
2022/10/08 03:07:31;;;;;;;10.02;8.15;;;;;;;;;;4973777;28;20136;-57
2022/10/08 03:10:29;;;;;;;;;;;;;;;;;;;;;
2022/10/08 03:13:31;;;;;;;14.85;8.13;;;;;;;;;;5063122;28;20806;-58
2022/10/08 03:19:09;;;;;;;11.70;6.60;;;;;;;;;;5004919;28;20030;-57
2022/10/08 03:22:03;;;;;;;12.68;6.75;;;;;;;;;;5026736;28;20033;-58
2022/10/08 03:24:35;;;;;;;15.38;7.97;;;;;;;;;;5063630;28;20093;-58
2022/10/08 03:27:17;;;;;;;9.23;7.05;;;;;;;;;;5063977;28;20043;-58
2022/10/08 03:29:50;;;;;;;8.75;7.25;;;;;;;;;;5047054;28;20044;-57
2022/10/08 03:32:52;;;;;;;;;;;;;;;;;;;;;
2022/10/08 03:35:33;;;;;;;9.43;6.90;;;;;;;;;;5047301;28;20491;-58
2022/10/08 03:38:25;;;;;;;16.45;8.23;;;;;;;;;;5052737;28;20071;-58
2022/10/08 03:41:30;;;;;;;10.18;7.57;;;;;;;;;;5125398;27;20155;-58
2022/10/08 03:44:13;;;;;;;11.93;7.75;;;;;;;;;;5073040;28;20580;-57
2022/10/08 03:46:59;;;;;;;9.10;6.75;;;;;;;;;;5056480;28;20526;-57
2022/10/08 03:49:46;;;;;;;7.70;6.90;;;;;;;;;;5072854;28;20457;-57
2022/10/08 03:52:16;;;;;;;11.05;7.78;;;;;;;;;;5072897;28;20033;-58
2022/10/08 03:54:58;;;;;;;7.35;6.50;;;;;;;;;;5062457;28;20470;-58
2022/10/08 03:57:27;;;;;;;8.77;6.53;;;;;;;;;;5072616;28;20044;-57
2022/10/08 04:00:30;;;;;;;12.18;7.72;;;;;;;;;;5073393;28;20040;-57
2022/10/08 04:03:25;;;;;;;8.68;6.25;;;;;;;;;;5075998;28;20040;-58
2022/10/08 04:06:00;;;;;;;7.38;6.10;;;;;;;;;;5049789;28;20033;-57
2022/10/08 04:08:50;;;;;;;10.48;6.50;;;;;;;;;;5101555;28;20488;-58
2022/10/08 04:14:29;;;;;;;8.82;7.63;;;;;;;;;;5134999;28;20046;-57
2022/10/08 04:23:22;;;;;;;7.35;6.03;;;;;;;;;;5073706;28;20039;-57
2022/10/08 04:29:00;;;;;;;;;;;;;;;;;;;;;
2022/10/08 04:31:45;;;;;;;;;;;;;;;;;;;;;
2022/10/08 04:34:26;;;;;;;9.90;6.53;;;;;;;;;;5059102;28;20106;-59
2022/10/08 04:37:05;;;;;;;10.05;6.32;;;;;;;;;;5145318;28;20027;-56
2022/10/08 04:43:04;;;;;;;9.07;7.00;;;;;;;;;;5081422;28;20032;-56
2022/10/08 04:46:03;;;;;;;14.55;7.63;;;;;;;;;;5068872;28;20059;-56
2022/10/08 04:48:35;;;;;;;8.25;5.22;;;;;;;;;;5054096;27;20080;-57
2022/10/08 04:51:17;;;;;;;8.38;6.65;;;;;;;;;;5148243;27;20051;-56
2022/10/08 04:53:46;;;;;;;8.55;6.60;;;;;;;;;;5146936;27;20043;-57
2022/10/08 04:59:50;;;;;;;12.90;6.30;;;;;;;;;;5091377;27;20188;-56
2022/10/08 05:02:30;;;;;;;10.57;6.10;;;;;;;;;;5148544;27;20038;-56
2022/10/08 05:05:22;;;;;;;7.45;5.70;;;;;;;;;;5149208;27;20028;-56
2022/10/08 05:07:55;;;;;;;10.57;7.38;;;;;;;;;;5112899;27;20035;-56
2022/10/08 05:10:55;;;;;;;7.00;6.20;;;;;;;;;;5149262;27;20023;-56
2022/10/08 05:13:50;;;;;;;6.20;5.60;;;;;;;;;;5125192;27;20042;-56
2022/10/08 05:16:38;;;;;;;8.18;7.38;;;;;;;;;;5045420;28;20045;-56
2022/10/08 05:19:29;;;;;;;7.38;6.30;;;;;;;;;;5049345;27;20068;-57
2022/10/08 05:22:16;;;;;;;9.82;7.30;;;;;;;;;;5148028;27;20380;-56
2022/10/08 05:25:07;;;;;;;9.07;7.88;;;;;;;;;;5147925;27;20094;-56
2022/10/08 05:30:34;;;;;;;;;;;;;;;;;;5147234;27;20032;-56
2022/10/08 05:33:29;;;;;;;6.53;5.65;;;;;;;;;;5118280;27;20321;-56
2022/10/08 05:36:19;;;;;;;8.45;6.00;;;;;;;;;;5137712;27;20035;-55
2022/10/08 05:39:17;;;;;;;12.18;7.00;;;;;;;;;;5114823;27;20035;-56
2022/10/08 05:41:55;;;;;;;7.38;5.18;;;;;;;;;;5034920;28;20033;-56
2022/10/08 05:47:38;;;;;;;13.40;6.00;;;;;;;;;;5135924;27;20043;-55
2022/10/08 05:53:26;;;;;;;5.60;5.07;;;;;;;;;;5033360;28;20060;-57
2022/10/08 05:59:14;;;;;;;6.80;5.25;;;;;;;;;;5026246;28;20564;-56
2022/10/08 06:02:08;;;;;;;9.48;5.30;;;;;;;;;;5032143;28;20037;-56
2022/10/08 06:04:52;;;;;;;12.27;5.88;;;;;;;;;;5019917;28;20025;-56
2022/10/08 06:07:56;;;;;;;;;;;;;;;;;;;;;
2022/10/08 06:10:20;;;;;;;11.45;5.00;;;;;;;;;;5033162;28;20593;-55
2022/10/08 06:13:13;;;;;;;9.73;5.65;;;;;;;;;;5034371;28;20030;-56
2022/10/08 06:16:12;;;;;;;8.55;5.68;;;;;;;;;;5079763;27;20042;-57
2022/10/08 06:28:33;;;;;;;6.57;5.18;;;;;;;;;;5114332;27;20039;-57
2022/10/08 06:31:20;;;;;;;6.93;4.38;;;;;;;;;;5118746;27;20027;-56
2022/10/08 06:36:54;;;;;;;8.55;5.10;;;;;;;;;;5093004;27;20030;-57
2022/10/08 06:45:58;;;;;;;8.25;4.28;;;;;;;;;;5135931;27;20031;-58
2022/10/08 06:48:34;;;;;;;7.05;4.60;;;;;;;;;;5095917;27;20038;-57
2022/10/08 06:51:35;;;;;;;9.68;5.55;;;;;;;;;;5136572;27;20019;-57
2022/10/08 06:57:44;;;;;;;5.30;3.70;;;;;;;;;;5136125;27;20057;-57
2022/10/08 07:04:07;;;;;;;6.57;3.80;;;;;;;;;;5013120;28;20045;-57
2022/10/08 07:07:15;;;;;;;7.65;4.35;;;;;;;;;;4973000;28;20074;-57
2022/10/08 07:09:48;;;;;;;4.07;3.40;;;;;;;;;;4915827;29;20135;-57
2022/10/08 07:12:38;;;;;;;5.95;4.80;;;;;;;;;;4929920;29;20110;-57
2022/10/08 07:15:09;;;;;;;10.00;4.70;;;;;;;;;;5022955;28;20029;-57
2022/10/08 07:20:32;;;;;;;6.13;4.40;;;;;;;;;;5052329;28;20060;-58
2022/10/08 07:29:33;;;;;;;7.05;3.63;;;;;;;;;;5135370;27;20050;-58
2022/10/08 07:32:16;;;;;;;4.72;3.50;;;;;;;;;;5101274;28;20073;-57
2022/10/08 07:35:01;;;;;;;9.88;3.78;;;;;;;;;;5104162;28;20032;-58
2022/10/08 07:38:09;;;;;;;;;;;;;;;;;;;;;
2022/10/08 07:40:54;;;;;;;8.95;3.88;;;;;;;;;;5025411;28;20100;-58
2022/10/08 07:43:36;;;;;;;8.68;3.13;;;;;;;;;;5101743;28;20024;-58
2022/10/08 07:46:33;;;;;;;6.32;3.10;;;;;;;;;;5102025;28;20044;-58
2022/10/08 07:49:37;;;;;;;5.00;2.95;;;;;;;;;;5102443;28;20063;-58
2022/10/08 07:52:07;;;;;;;11.52;3.88;;;;;;;;;;5093057;28;20029;-59
2022/10/08 07:54:44;;;;;;;4.68;2.22;;;;;;;;;;5072148;28;20044;-58
2022/10/08 07:57:24;;;;;;;4.38;2.60;;;;;;;;;;5069287;28;20047;-58
2022/10/08 08:05:56;;;;;;;8.48;2.42;;;;;;;;;;5102366;28;20036;-58
2022/10/08 08:08:47;;;;;;;3.72;2.50;;;;;;;;;;5103143;28;20116;-57
2022/10/08 08:11:23;;;;;;;5.07;2.92;;;;;;;;;;5102384;28;20055;-58
2022/10/08 08:14:13;;;;;;;6.13;2.95;;;;;;;;;;5103593;28;20055;-57
2022/10/08 08:20:14;;;;;;;5.32;3.83;;;;;;;;;;5123691;27;20043;-58
2022/10/08 08:22:50;;;;;;;7.18;2.72;;;;;;;;;;5151489;27;20034;-57
2022/10/08 08:25:35;;;;;;;9.02;3.45;;;;;;;;;;5147854;27;20023;-58
2022/10/08 08:34:51;;;;;;;7.78;3.30;;;;;;;;;;5043429;28;20033;-58
2022/10/08 08:37:26;;;;;;;3.88;3.13;;;;;;;;;;5023363;28;20145;-58
2022/10/08 08:40:05;;;;;;;5.53;2.25;;;;;;;;;;5113364;27;20066;-57
2022/10/08 08:42:52;;;;;;;6.90;3.20;;;;;;;;;;5147752;27;20051;-55
2022/10/08 08:45:50;;;;;;;4.45;2.92;;;;;;;;;;5141198;27;20036;-56
2022/10/08 08:48:33;;;;;;;5.43;2.63;;;;;;;;;;5149587;27;20086;-56
2022/10/08 08:51:30;;;;;;;6.40;2.60;;;;;;;;;;5132094;27;20046;-56
2022/10/08 08:54:09;;;;;;;4.38;2.53;;;;;;;;;;5147013;27;20051;-57
2022/10/08 08:56:35;;;;;;;5.40;2.58;;;;;;;;;;5147146;27;20388;-58
2022/10/08 08:59:39;;;;;;;7.72;3.53;;;;;;;;;;5131600;27;20031;-57
2022/10/08 09:02:36;;;;;;;5.93;2.67;;;;;;;;;;5148561;27;20019;-56
2022/10/08 09:08:40;;;;;;;3.13;2.45;;;;;;;;;;5134798;27;20043;-58
2022/10/08 09:11:29;;;;;;;6.80;2.42;;;;;;;;;;5150469;27;20112;-58
2022/10/08 09:14:25;;;;;;;7.35;2.92;;;;;;;;;;5150792;27;20028;-57
2022/10/08 09:17:04;;;;;;;6.65;2.47;;;;;;;;;;5149631;27;20106;-58
2022/10/08 09:19:41;;;;;;;6.35;2.25;;;;;;;;;;5150288;27;20038;-57
2022/10/08 09:22:39;;;;;;;;;;;;;;;;;;;;;
2022/10/08 09:31:29;;;;;;;7.70;2.47;;;;;;;;;;5100519;27;20034;-58
2022/10/08 09:34:50;;;;;;;;;;;;;;;;;;;;;
2022/10/08 09:37:23;;;;;;;3.30;1.23;;;;;;;;;;5138450;27;20025;-58
2022/10/08 09:43:21;;;;;;;6.72;1.73;;;;;;;;;;5097452;27;20034;-58
2022/10/08 09:45:54;;;;;;;6.57;2.38;;;;;;;;;;5136942;27;20015;-57
2022/10/08 09:48:58;;;;;;;4.15;2.30;;;;;;;;;;5086682;27;20053;-58
2022/10/08 09:51:56;;;;;;;7.28;2.20;;;;;;;;;;5137744;27;20027;-57
2022/10/08 09:54:41;;;;;;;5.07;1.63;;;;;;;;;;5032035;28;20045;-57
2022/10/08 10:00:47;;;;;;;2.90;2.03;;;;;;;;;;5019496;28;20060;-57
2022/10/08 10:03:17;;;;;;;5.70;2.63;;;;;;;;;;5034374;28;20104;-57
2022/10/08 10:09:29;;;;;;;11.45;2.90;;;;;;;;;;5014662;28;20311;-57
2022/10/08 10:12:31;;;;;;;;;;;;;;;;;;;;;
2022/10/08 10:15:38;;;;;;;3.05;1.77;;;;;;;;;;4975204;28;20034;-57
2022/10/08 10:18:08;;;;;;;3.90;1.83;;;;;;;;;;5005462;28;20052;-58
2022/10/08 10:21:26;;;;;;;;;;;;;;;;;;;;;
2022/10/08 10:24:04;;;;;;;5.75;1.77;;;;;;;;;;5053718;28;20029;-57
2022/10/08 10:26:55;;;;;;;9.43;2.00;;;;;;;;;;5053425;28;20446;-57
2022/10/08 10:29:54;;;;;;;2.75;1.58;;;;;;;;;;5053777;28;20037;-57
2022/10/08 10:32:53;;;;;;;2.90;1.55;;;;;;;;;;5078456;27;20122;-58
2022/10/08 10:36:01;;;;;;;4.55;2.00;;;;;;;;;;5042261;27;20031;-57
2022/10/08 10:38:34;;;;;;;5.65;1.95;;;;;;;;;;5088132;27;20031;-58
2022/10/08 10:41:41;;;;;;;7.40;1.90;;;;;;;;;;5116194;27;20058;-57
2022/10/08 10:44:44;;;;;;;6.53;1.85;;;;;;;;;;5011784;28;20033;-57
2022/10/08 10:48:01;;;;;;;;;;;;;;;;;;;;;
2022/10/08 10:50:48;;;;;;;6.05;2.72;;;;;;;;;;5047161;27;20059;-58
2022/10/08 10:53:39;;;;;;;10.27;2.15;;;;;;;;;;5136927;27;20023;-59
2022/10/08 10:56:36;;;;;;;5.38;2.00;;;;;;;;;;5117765;27;20035;-57
2022/10/08 10:59:24;;;;;;;3.28;2.38;;;;;;;;;;5118131;27;20038;-57
2022/10/08 11:02:18;;;;;;;9.95;2.28;;;;;;;;;;5136799;27;20044;-58
2022/10/08 11:05:08;;;;;;;3.78;2.33;;;;;;;;;;5136913;27;20023;-55
2022/10/08 11:07:37;;;;;;;;;;;;;;;;;;5122174;27;20084;-57
2022/10/08 11:10:39;;;;;;;;;;;;;;;;;;;;;
2022/10/08 11:13:24;;;;;;;5.10;1.90;;;;;;;;;;5130458;27;20213;-57
2022/10/08 11:19:40;;;;;;;2.97;1.50;;;;;;;;;;5052310;28;20514;-58
2022/10/08 11:22:17;;;;;;;8.45;2.28;;;;;;;;;;5053449;28;20028;-58
2022/10/08 11:28:19;;;;;;;4.40;1.65;;;;;;;;;;5135920;27;20068;-57
2022/10/08 11:31:13;;;;;;;2.42;1.10;;;;;;;;;;5137138;27;20068;-58
2022/10/08 11:34:07;;;;;;;3.65;1.33;;;;;;;;;;5121145;27;20038;-57
2022/10/08 11:36:45;;;;;;;9.60;1.83;;;;;;;;;;5136863;27;20122;-57
2022/10/08 11:39:44;;;;;;;7.65;1.92;;;;;;;;;;5136257;27;20328;-57
2022/10/08 11:42:22;;;;;;;6.35;2.08;;;;;;;;;;5121924;28;20049;-55
2022/10/08 11:51:21;;;;;;;5.03;1.38;;;;;;;;;;5109279;27;20030;-57
2022/10/08 11:54:19;;;;;;;6.05;1.35;;;;;;;;;;5134214;27;20031;-57
2022/10/08 11:57:08;;;;;;;1.48;0.70;;;;;;;;;;5011908;28;20045;-57
2022/10/08 11:59:59;;;;;;;4.68;1.70;;;;;;;;;;5110894;28;20043;-57
2022/10/08 12:02:51;;;;;;;4.95;2.03;;;;;;;;;;5114902;28;20106;-57
2022/10/08 12:08:32;;;;;;;3.30;1.02;;;;;;;;;;5114223;28;20070;-57
2022/10/08 12:17:49;;;;;;;3.08;1.50;;;;;;;;;;5111933;28;20034;-57
2022/10/08 12:23:44;;;;;;;;;;;;;;;;;;;;;
2022/10/08 12:26:19;;;;;;;4.30;1.25;;;;;;;;;;5017575;28;20037;-58
2022/10/08 12:29:23;;;;;;;2.83;1.27;;;;;;;;;;4979731;28;20121;-57
2022/10/08 12:32:11;;;;;;;5.32;1.58;;;;;;;;;;4989564;28;20035;-57
2022/10/08 12:44:05;;;;;;;6.93;1.88;;;;;;;;;;4989975;28;20100;-57
2022/10/08 12:46:53;;;;;;;4.05;1.25;;;;;;;;;;4972899;28;20037;-58
2022/10/08 12:49:34;;;;;;;3.13;1.20;;;;;;;;;;5009454;28;20044;-57
2022/10/08 12:52:00;;;;;;;;;;;;;;;;;;5115225;28;20016;-57
2022/10/08 12:55:00;;;;;;;9.60;1.40;;;;;;;;;;5118036;27;19924;-57
2022/10/08 12:57:34;;;;;;;6.70;1.38;;;;;;;;;;5115714;28;20484;-58
2022/10/08 13:00:15;;;;;;;2.83;0.90;;;;;;;;;;5116961;28;20027;-57
2022/10/08 13:03:15;;;;;;;;;;;;;;;;;;;;;
2022/10/08 13:05:46;;;;;;;4.18;1.60;;;;;;;;;;5132717;27;20390;-56
2022/10/08 13:08:46;;;;;;;2.83;1.10;;;;;;;;;;5102753;27;20426;-58
2022/10/08 13:11:22;;;;;;;3.40;1.40;;;;;;;;;;5137536;27;20545;-58
2022/10/08 13:13:49;;;;;;;6.65;1.70;;;;;;;;;;5119406;27;20264;-57
2022/10/08 13:16:44;;;;;;;2.45;1.33;;;;;;;;;;5138480;27;20043;-56
2022/10/08 13:19:58;;;;;;;2.38;1.02;;;;;;;;;;5138874;27;20169;-57
2022/10/08 13:23:07;;;;;;;;;;;;;;;;;;;;;
2022/10/08 13:25:41;;;;;;;3.10;1.48;;;;;;;;;;5052450;28;20050;-57
2022/10/08 13:34:38;;;;;;;;;;;;;;;;;;;;;
2022/10/08 13:37:11;;;;;;;2.58;1.13;;;;;;;;;;5112943;27;20118;-56
2022/10/08 13:40:17;;;;;;;5.28;1.48;;;;;;;;;;5138318;27;20082;-57
2022/10/08 13:42:49;;;;;;;6.57;2.03;;;;;;;;;;5138627;27;20098;-54
2022/10/08 13:45:36;;;;;;;3.88;1.38;;;;;;;;;;5138039;27;20045;-57
2022/10/08 13:48:44;;;;;;;;;;;;;;;;;;;;;
2022/10/08 13:51:32;;;;;;;3.45;1.13;;;;;;;;;;5100244;27;20161;-56
2022/10/08 13:54:02;;;;;;;3.03;0.88;;;;;;;;;;5116867;27;20031;-57
2022/10/08 13:57:12;;;;;;;;;;;;;;;;;;;;;
2022/10/08 14:00:02;;;;;;;5.60;1.40;;;;;;;;;;5135984;27;20046;-57
2022/10/08 14:03:09;;;;;;;1.33;0.70;;;;;;;;;;5128604;27;20459;-56
2022/10/08 14:08:43;;;;;;;1.52;0.52;;;;;;;;;;5112593;27;20118;-56
2022/10/08 14:11:49;;;;;;;2.25;1.00;;;;;;;;;;5137089;27;20019;-57
2022/10/08 14:14:31;;;;;;;2.88;1.10;;;;;;;;;;5086064;28;20032;-53
2022/10/08 14:17:19;;;;;;;4.28;0.98;;;;;;;;;;5136447;27;20027;-56
2022/10/08 14:20:15;;;;;;;2.20;1.17;;;;;;;;;;5032589;27;20433;-56
2022/10/08 14:22:56;;;;;;;1.88;0.82;;;;;;;;;;5115294;27;20487;-56
2022/10/08 14:25:56;;;;;;;2.97;1.05;;;;;;;;;;5117868;27;20540;-56
2022/10/08 14:28:57;;;;;;;;;;;;;;;;;;;;;
2022/10/08 14:37:36;;;;;;;3.22;1.52;;;;;;;;;;5136364;27;20096;-57
2022/10/08 14:43:50;;;;;;;3.58;1.33;;;;;;;;;;5117816;27;20023;-55
2022/10/08 14:46:54;;;;;;;;;;;;;;;;;;;;;
2022/10/08 14:52:54;;;;;;;2.47;0.88;;;;;;;;;;5131951;27;20038;-57
2022/10/08 14:55:59;;;;;;;4.10;1.08;;;;;;;;;;5036240;28;20133;-57
2022/10/08 14:58:50;;;;;;;2.50;0.80;;;;;;;;;;5114776;28;20038;-57
2022/10/08 15:01:44;;;;;;;2.75;0.88;;;;;;;;;;5116163;28;20501;-57
2022/10/08 15:04:42;;;;;;;1.23;0.60;;;;;;;;;;5073065;28;20048;-57
2022/10/08 15:07:27;;;;;;;2.40;0.85;;;;;;;;;;5081104;28;20486;-57
2022/10/08 15:10:16;;;;;;;3.08;1.17;;;;;;;;;;4990321;28;20439;-57
2022/10/08 15:13:14;;;;;;;1.17;0.65;;;;;;;;;;5078316;28;20217;-57
2022/10/08 15:15:58;;;;;;;3.80;1.13;;;;;;;;;;5092761;28;20024;-57
2022/10/08 15:19:07;;;;;;;1.75;1.10;;;;;;;;;;5048576;28;20504;-57
2022/10/08 15:21:45;;;;;;;2.35;1.08;;;;;;;;;;5060952;28;20039;-57
2022/10/08 15:24:48;;;;;;;1.60;0.80;;;;;;;;;;5092643;28;20051;-55
2022/10/08 15:27:42;;;;;;;;;;;;;;;;;;;;;
2022/10/08 15:30:19;;;;;;;;;;;;;;;;;;;;;
2022/10/08 15:32:57;;;;;;;3.40;1.10;;;;;;;;;;5093400;28;20203;-57
2022/10/08 15:38:32;;;;;;;0.95;0.40;;;;;;;;;;5115104;28;20124;-56
2022/10/08 15:41:25;;;;;;;2.70;1.05;;;;;;;;;;5112568;28;20123;-57
2022/10/08 15:44:05;;;;;;;;;;;;;;;;;;;;;
2022/10/08 15:46:39;;;;;;;1.58;0.70;;;;;;;;;;5109889;28;20042;-57
2022/10/08 15:49:34;;;;;;;2.38;0.98;;;;;;;;;;5097946;28;20536;-57
2022/10/08 15:52:10;;;;;;;2.33;0.70;;;;;;;;;;5075879;28;20057;-56
2022/10/08 15:54:56;;;;;;;2.38;0.73;;;;;;;;;;5097273;28;20480;-56
2022/10/08 15:57:44;;;;;;;2.13;0.80;;;;;;;;;;5113802;28;20075;-56
2022/10/08 16:00:10;;;;;;;1.83;0.52;;;;;;;;;;5114989;28;20461;-57
2022/10/08 16:06:45;;;;;;;4.80;0.90;;;;;;;;;;5012419;28;20042;-57
2022/10/08 16:09:21;;;;;;;3.05;0.60;;;;;;;;;;5114709;28;20499;-56
2022/10/08 16:11:53;;;;;;;2.72;1.00;;;;;;;;;;5116037;28;20028;-57
2022/10/08 16:14:44;;;;;;;1.10;0.40;;;;;;;;;;5097085;28;20122;-56
2022/10/08 16:17:29;;;;;;;1.73;0.60;;;;;;;;;;5117426;28;20059;-57
2022/10/08 16:23:52;;;;;;;4.30;0.70;;;;;;;;;;5114343;28;20536;-57
2022/10/08 16:26:34;;;;;;;1.70;1.08;;;;;;;;;;5059050;28;20130;-57
2022/10/08 16:29:23;;;;;;;2.42;0.70;;;;;;;;;;5095338;28;20089;-57
2022/10/08 16:32:01;;;;;;;2.67;1.05;;;;;;;;;;5099741;28;20047;-57
2022/10/08 16:34:50;;;;;;;;;;;;;;;;;;;;;
2022/10/08 16:37:53;;;;;;;3.92;1.40;;;;;;;;;;5108889;28;20477;-57
2022/10/08 16:40:54;;;;;;;6.35;1.70;;;;;;;;;;4996603;28;20261;-58
2022/10/08 16:43:56;;;;;;;2.20;1.15;;;;;;;;;;5118088;28;20024;-57
2022/10/08 16:46:35;;;;;;;1.70;0.68;;;;;;;;;;5118094;28;20514;-56
2022/10/08 16:49:23;;;;;;;1.30;0.60;;;;;;;;;;5098850;28;20032;-57
2022/10/08 16:54:54;;;;;;;1.10;0.60;;;;;;;;;;5106558;27;20051;-57
2022/10/08 16:57:31;;;;;;;1.67;0.70;;;;;;;;;;5100379;28;20028;-57
2022/10/08 17:00:01;;;;;;;2.08;0.80;;;;;;;;;;5098343;28;20036;-57
2022/10/08 17:02:55;;;;;;;3.45;1.35;;;;;;;;;;5098567;28;20548;-58
2022/10/08 17:08:50;;;;;;;;;;;;;;;;;;;;;
2022/10/08 17:11:38;;;;;;;4.40;1.25;;;;;;;;;;5118183;28;20369;-58
2022/10/08 17:17:34;;;;;;;6.90;1.65;;;;;;;;;;5074633;28;20024;-57
2022/10/08 17:23:14;;;;;;;5.65;1.52;;;;;;;;;;5118250;28;20476;-61
2022/10/08 17:25:57;;;;;;;4.13;1.58;;;;;;;;;;5083400;28;20081;-58
2022/10/08 17:28:54;;;;;;;3.67;0.98;;;;;;;;;;5117915;28;20079;-59
2022/10/08 17:34:32;;;;;;;4.22;1.30;;;;;;;;;;5117721;28;20061;-56
2022/10/08 17:37:16;;;;;;;3.85;1.92;;;;;;;;;;5117990;28;20024;-57
2022/10/08 17:40:07;;;;;;;3.78;1.90;;;;;;;;;;5114548;28;20039;-57
2022/10/08 17:43:18;;;;;;;3.15;1.42;;;;;;;;;;5118361;28;20035;-58
2022/10/08 17:45:44;;;;;;;3.40;1.45;;;;;;;;;;4998014;28;20030;-58
2022/10/08 17:48:16;;;;;;;2.38;1.23;;;;;;;;;;5102668;28;20465;-57
2022/10/08 17:53:56;;;;;;;5.15;1.50;;;;;;;;;;5088555;28;20024;-57
2022/10/08 17:56:40;;;;;;;;;;;;;;;;;;;;;
2022/10/08 17:59:35;;;;;;;2.40;1.23;;;;;;;;;;5121643;27;20126;-57
2022/10/08 18:02:04;;;;;;;4.35;1.27;;;;;;;;;;5110789;27;20411;-58
2022/10/08 18:04:44;;;;;;;4.93;1.35;;;;;;;;;;5135555;27;20106;-57
2022/10/08 18:07:51;;;;;;;;;;;;;;;;;;;;;
2022/10/08 18:10:35;;;;;;;3.72;1.02;;;;;;;;;;5138085;27;20552;-56
2022/10/08 18:16:27;;;;;;;3.00;2.05;;;;;;;;;;5137649;27;20476;-57
2022/10/08 18:19:56;;;;;;;;;;;;;;;;;;;;;
2022/10/08 18:31:38;;;;;;;3.63;2.10;;;;;;;;;;5137560;27;20081;-58
2022/10/08 18:34:30;;;;;;;4.43;2.00;;;;;;;;;;5137848;27;20039;-57
2022/10/08 18:37:37;;;;;;;3.80;2.20;;;;;;;;;;5126032;27;20035;-58
2022/10/08 18:40:26;;;;;;;;;;;;;;;;;;;;;
2022/10/08 18:43:04;;;;;;;7.20;2.15;;;;;;;;;;5032792;28;20422;-53
2022/10/08 18:45:37;;;;;;;3.08;2.05;;;;;;;;;;5030344;28;20041;-57
2022/10/08 18:48:29;;;;;;;6.10;2.30;;;;;;;;;;5023861;28;20100;-57
2022/10/08 18:51:20;;;;;;;;;;;;;;;;;;;;;
2022/10/08 19:00:46;;;;;;;4.60;2.42;;;;;;;;;;5135838;27;20083;-57
2022/10/08 19:03:29;;;;;;;4.90;2.30;;;;;;;;;;5098703;28;20603;-57
2022/10/08 19:09:37;;;;;;;4.95;2.42;;;;;;;;;;5101536;28;20060;-57
2022/10/08 19:12:11;;;;;;;4.70;2.58;;;;;;;;;;5107345;28;20078;-59
2022/10/08 19:18:12;;;;;;;6.65;3.05;;;;;;;;;;5113076;28;20024;-57
2022/10/08 19:20:48;;;;;;;7.40;3.05;;;;;;;;;;5076303;28;20024;-57
2022/10/08 19:23:43;;;;;;;8.77;3.28;;;;;;;;;;5095466;28;20479;-57
2022/10/08 19:32:41;;;;;;;3.50;2.47;;;;;;;;;;5123544;27;20031;-55
2022/10/08 19:35:43;;;;;;;4.00;3.00;;;;;;;;;;5135749;27;20468;-57
2022/10/08 19:38:34;;;;;;;6.50;2.92;;;;;;;;;;5032694;28;20030;-57
2022/10/08 19:47:25;;;;;;;;;;;;;;;;;;;;;
2022/10/08 19:50:25;;;;;;;8.43;3.00;;;;;;;;;;5130534;27;20045;-56
2022/10/08 19:52:58;;;;;;;3.67;2.35;;;;;;;;;;5142686;27;20365;-54
2022/10/08 19:55:27;;;;;;;5.82;3.08;;;;;;;;;;5147969;27;20031;-55
2022/10/08 19:58:15;;;;;;;3.75;2.40;;;;;;;;;;5127576;28;20048;-56
2022/10/08 20:04:03;;;;;;;5.32;2.65;;;;;;;;;;5103848;28;20074;-57
2022/10/08 20:06:49;;;;;;;4.85;2.88;;;;;;;;;;5082105;28;20040;-56
2022/10/08 20:09:27;;;;;;;6.90;2.90;;;;;;;;;;5084057;28;20124;-56
2022/10/08 20:12:17;;;;;;;5.72;3.03;;;;;;;;;;5084845;28;20043;-56
2022/10/08 20:15:07;;;;;;;5.45;3.15;;;;;;;;;;5097622;28;20038;-57
2022/10/08 20:17:36;;;;;;;5.72;4.15;;;;;;;;;;5092446;28;20078;-57
2022/10/08 20:20:32;;;;;;;7.95;4.55;;;;;;;;;;5109265;28;20035;-57
2022/10/08 20:23:10;;;;;;;7.07;3.03;;;;;;;;;;5085707;28;20044;-55
2022/10/08 20:28:48;;;;;;;;;;;;;;;;;;;;;
2022/10/08 20:31:35;;;;;;;5.82;3.40;;;;;;;;;;5109516;28;20702;-54
2022/10/08 20:34:18;;;;;;;7.70;3.50;;;;;;;;;;5069216;28;20087;-57
2022/10/08 20:40:11;;;;;;;4.68;2.78;;;;;;;;;;5036776;28;20059;-57
2022/10/08 20:42:53;;;;;;;5.85;2.58;;;;;;;;;;5131326;28;20045;-57
2022/10/08 20:45:28;;;;;;;6.07;3.35;;;;;;;;;;5131083;28;20023;-56
2022/10/08 20:48:11;;;;;;;5.80;3.22;;;;;;;;;;5131252;28;20020;-55
2022/10/08 20:50:58;;;;;;;5.28;3.15;;;;;;;;;;5111226;28;20124;-57
2022/10/08 20:53:30;;;;;;;5.20;3.88;;;;;;;;;;5099551;28;20050;-57
2022/10/08 20:59:17;;;;;;;3.72;2.88;;;;;;;;;;5138516;27;20042;-57
2022/10/08 21:02:05;;;;;;;8.27;3.83;;;;;;;;;;5129207;27;20430;-57
2022/10/08 21:05:19;;;;;;;5.25;3.00;;;;;;;;;;5108863;28;20055;-57
2022/10/08 21:08:01;;;;;;;7.03;3.97;;;;;;;;;;5074690;28;20028;-56
2022/10/08 21:10:49;;;;;;;6.75;3.95;;;;;;;;;;5072669;28;20048;-57
2022/10/08 21:19:14;;;;;;;5.25;4.38;;;;;;;;;;5108840;28;20038;-58
2022/10/08 21:22:01;;;;;;;8.75;4.80;;;;;;;;;;5092012;28;20035;-57
2022/10/08 21:30:12;;;;;;;7.90;4.15;;;;;;;;;;5108556;28;20092;-56
2022/10/08 21:35:52;;;;;;;8.68;4.18;;;;;;;;;;5130769;27;20099;-56
2022/10/08 21:38:40;;;;;;;7.35;3.72;;;;;;;;;;5152026;27;20031;-56
2022/10/08 21:41:26;;;;;;;6.30;2.80;;;;;;;;;;5048550;28;20044;-55
2022/10/08 21:44:10;;;;;;;6.68;3.85;;;;;;;;;;5134147;27;20036;-54
2022/10/08 21:46:37;;;;;;;4.45;3.92;;;;;;;;;;5151746;27;20023;-58
2022/10/08 21:49:22;;;;;;;6.20;3.72;;;;;;;;;;5150850;27;20129;-58
2022/10/08 21:52:00;;;;;;;7.28;4.72;;;;;;;;;;5130118;27;20087;-55
2022/10/08 21:54:45;;;;;;;4.90;3.75;;;;;;;;;;5151434;27;20055;-56
2022/10/08 22:00:21;;;;;;;3.15;2.53;;;;;;;;;;5108288;28;20043;-57
2022/10/08 22:03:27;;;;;;;;;;;;;;;;;;;;;
2022/10/08 22:05:56;;;;;;;7.38;3.95;;;;;;;;;;5043045;28;20099;-57
2022/10/08 22:08:45;;;;;;;3.85;2.92;;;;;;;;;;5090152;28;20036;-55
2022/10/08 22:11:29;;;;;;;5.30;3.40;;;;;;;;;;5053211;28;20529;-57
2022/10/08 22:14:05;;;;;;;7.53;4.13;;;;;;;;;;5107786;28;20032;-57
2022/10/08 22:16:34;;;;;;;6.22;3.40;;;;;;;;;;5107414;28;20027;-55
2022/10/08 22:28:36;;;;;;;4.00;3.00;;;;;;;;;;5114817;27;20053;-57
2022/10/08 22:34:45;;;;;;;3.95;2.90;;;;;;;;;;5066845;28;20124;-56
2022/10/08 22:37:20;;;;;;;3.78;2.67;;;;;;;;;;5067100;28;20128;-57
2022/10/08 22:40:10;;;;;;;;;;;;;;;;;;;;;